Warning: Javascript must be enabled to use all the features on this page!


Page Loading - Please Wait...

Click to hideNews Bulletins

Peak Streamflow for the Nation

USGS 14087400 CROOKED RIVER BELOW OPAL SPRINGS, NEAR CULVER, OR

Jefferson County, Oregon
Hydrologic Unit Code 17070305
Latitude  44°29'33", Longitude 121°17'50" NAD27
Drainage area 4,557  square miles
Gage datum 1,953.60 feet above NGVD29
Output formats
Table
Graph
Tab-separated file
peakfq (watstore) format
Reselect output format
Water
Year
Date Gage
Height
(feet)
Stream-
flow
(cfs)
1962 1962-04-20 4.65 2,6906
1963 1963-02-23 5.41 3,2806
1964 1964-04-06 3.42 1,9806
1965 1964-12-24 9.36 6,6606
1966 1966-04-05 5.05 3,0006
1967 1967-02-01 5.51 3,2106
1968 1967-10-17 3.23 1,8806
1969 1969-04-04 6.00 3,6806
1970 1970-01-24 6.56 4,1306
1971 1971-01-20 7.28 4,7006
1972 1972-03-15 8.08 5,4206
1973 1973-01-23 3.26 1,8906
1974 1974-04-05 6.38 3,9806
1975 1975-04-24 5.51 3,3206
1976 1976-04-13 6.17 3,8206
1977 1976-10-22 2.93 1,7106
1978 1978-04-27 6.11 3,7706
1979 1979-03-08 7.52 4,9206
1980 1980-02-28 5.67 3,4206
1981 1981-03-30 4.71 2,7306
1982 1982-02-21 8.10 5,1606
1983 1983-03-14 7.88 4,9606
1984 1984-03-16 7.93 5,1706
1985 1985-04-11 6.79 4,1306
1986 1986-03-10 8.67 5,9106
1987 1987-03-22 6.31 3,7406
1988 1987-10-21 4.39 2,3806
1989 1989-03-12 7.95 5,1906
1990 1990-09-07 4.70 2,5806
1991 1990-10-16 4.91 2,7206
1992 1992-07-12 4.56 2,4906
1993 1993-03-23 8.78 6,0306
1994 1993-10-17 4.81 2,6906
1995 1994-12-14 4.20 2,3206
1996 1996-02-12 8.20 5,4406
1997 1997-01-02 9.08 6,3506
1998 1998-05-31 8.58 5,9706
1999 1999-03-04 7.93 5,1706
2000 2000-04-01 6.36 3,7806
2001 2001-04-08 4.77 2,6706
2002 2002-07-16 3.99 2,2106
2003 2003-08-07 4.43 2,4606
2004 2004-03-19 6.02 3,5506
2005 2005-04-29 6.41 3,8206
2006 2006-04-09 7.60 4,9406
2007 2006-12-29 5.46 3,2006
2008 2008-05-30 4.81 2,7806
2009 2009-05-07 4.52 2,6006
2010 2010-04-23 6.67 4,1106
2011 2011-04-08 6.97 4,3706
2012 2012-04-23 5.53 3,2406
2013 2013-05-28 4.18 2,4206
2014 2014-01-04 4.25 2,4606
2015 2015-06-29 4.20 2,4306
2016 2016-03-13 5.76 3,4306
2017 2017-03-21 7.52 4,8706
2018 2017-11-20 4.39 2,5406
2019 2019-04-11 7.13 4,5006
2020 2020-04-02 4.55 2,6406
?
  Peak Streamflow Qualification Codes.